createdAt,value
2023-05-20T00:01:00.680Z,2.30
2023-05-20T00:03:30.505Z,2.70
2023-05-20T00:05:58.956Z,2.58
2023-05-20T00:08:27.419Z,2.40
2023-05-20T00:10:55.717Z,2.30
2023-05-20T00:13:25.164Z,2.60
2023-05-20T00:15:54.469Z,2.50
2023-05-20T00:18:22.693Z,2.38
2023-05-20T00:20:51.327Z,2.30
2023-05-20T00:23:19.608Z,2.17
2023-05-20T00:25:48.074Z,2.53
2023-05-20T00:28:16.522Z,2.20
2023-05-20T00:30:44.782Z,2.40
2023-05-20T00:33:13.592Z,2.00
2023-05-20T00:35:41.935Z,2.30
2023-05-20T00:38:10.241Z,2.85
2023-05-20T00:40:38.509Z,2.08
2023-05-20T00:43:06.820Z,2.35
2023-05-20T00:45:35.408Z,2.35
2023-05-20T00:48:04.942Z,2.30
2023-05-20T00:50:33.631Z,2.05
2023-05-20T00:53:01.981Z,2.05
2023-05-20T00:55:30.284Z,2.50
2023-05-20T00:57:58.699Z,2.30
2023-05-20T01:00:26.924Z,2.42
2023-05-20T01:02:57.860Z,2.00
2023-05-20T01:05:26.197Z,2.22
2023-05-20T01:07:54.706Z,2.42
2023-05-20T01:10:28.539Z,2.22
2023-05-20T01:13:00.350Z,2.45
2023-05-20T01:15:29.585Z,2.45
2023-05-20T01:18:02.635Z,2.20
2023-05-20T01:20:33.282Z,1.88
2023-05-20T01:23:01.756Z,2.30
2023-05-20T01:25:30.071Z,2.40
2023-05-20T01:27:58.966Z,2.50
2023-05-20T01:30:31.860Z,2.00
2023-05-20T01:33:06.144Z,2.58
2023-05-20T01:38:06.324Z,2.40
2023-05-20T01:40:35.662Z,2.45
2023-05-20T01:43:05.393Z,1.85
2023-05-20T01:45:34.510Z,2.08
2023-05-20T01:48:03.925Z,2.38
2023-05-20T01:50:32.202Z,2.58
2023-05-20T01:53:00.528Z,2.17
2023-05-20T01:55:28.811Z,2.45
2023-05-20T01:57:57.084Z,2.10
2023-05-20T02:00:25.486Z,1.95
2023-05-20T02:02:53.791Z,2.42
2023-05-20T02:05:22.288Z,1.90
2023-05-20T02:07:50.878Z,1.90
2023-05-20T02:10:19.146Z,2.10
2023-05-20T02:12:48.727Z,2.35
2023-05-20T02:15:17.107Z,2.75
2023-05-20T02:17:45.438Z,2.08
2023-05-20T02:20:14.661Z,2.50
2023-05-20T02:22:42.943Z,2.30
2023-05-20T02:25:11.402Z,2.10
2023-05-20T02:27:40.754Z,2.20
2023-05-20T02:30:09.929Z,2.38
2023-05-20T02:32:39.073Z,2.28
2023-05-20T02:35:07.665Z,1.80
2023-05-20T02:37:35.977Z,2.08
2023-05-20T02:40:04.258Z,2.35
2023-05-20T02:42:32.556Z,2.20
2023-05-20T02:45:00.807Z,2.05
2023-05-20T02:47:29.226Z,2.40
2023-05-20T02:49:57.577Z,1.88
2023-05-20T02:52:25.830Z,2.50
2023-05-20T02:54:54.130Z,2.00
2023-05-20T02:57:22.524Z,1.92
2023-05-20T02:59:51.171Z,2.22
2023-05-20T03:02:19.579Z,2.00
2023-05-20T03:04:48.072Z,2.40
2023-05-20T03:07:20.301Z,2.17
2023-05-20T03:09:48.691Z,2.08
2023-05-20T03:12:16.992Z,3.28
2023-05-20T03:14:45.248Z,2.60
2023-05-20T03:17:13.527Z,2.47
2023-05-20T03:19:42.085Z,2.25
2023-05-20T03:22:10.286Z,2.45
2023-05-20T03:24:38.569Z,2.60
2023-05-20T03:27:07.715Z,2.10
2023-05-20T03:29:36.003Z,1.85
2023-05-20T03:32:04.277Z,2.38
2023-05-20T03:34:32.752Z,2.20
2023-05-20T03:37:01.200Z,2.38
2023-05-20T03:39:29.515Z,2.60
2023-05-20T03:41:57.751Z,2.58
2023-05-20T03:44:26.013Z,2.20
2023-05-20T03:46:54.308Z,2.13
2023-05-20T03:49:22.564Z,2.47
2023-05-20T03:51:51.137Z,2.20
2023-05-20T03:54:19.361Z,2.22
2023-05-20T03:56:47.879Z,2.28
2023-05-20T03:59:16.350Z,2.30
2023-05-20T04:01:44.669Z,2.10
2023-05-20T04:04:13.083Z,2.58
2023-05-20T04:06:41.459Z,2.30
2023-05-20T04:09:09.869Z,2.42
2023-05-20T04:11:38.136Z,2.30
2023-05-20T04:14:06.439Z,1.88
2023-05-20T04:16:34.660Z,2.45
2023-05-20T04:19:03.547Z,2.75
2023-05-20T04:21:32.498Z,2.42
2023-05-20T04:24:00.795Z,2.63
2023-05-20T04:26:29.847Z,2.47
2023-05-20T04:28:59.917Z,2.45
2023-05-20T04:31:28.218Z,2.30
2023-05-20T04:33:56.783Z,2.47
2023-05-20T04:36:29.507Z,2.13
2023-05-20T04:38:58.291Z,2.30
2023-05-20T04:41:26.536Z,2.17
2023-05-20T04:43:54.758Z,2.47
2023-05-20T04:46:23.038Z,2.22
2023-05-20T04:48:51.686Z,2.10
2023-05-20T04:51:19.941Z,2.33
2023-05-20T04:53:48.193Z,2.30
2023-05-20T04:56:16.640Z,2.00
2023-05-20T04:58:44.898Z,2.42
2023-05-20T05:01:13.142Z,2.40
2023-05-20T05:03:41.438Z,2.15
2023-05-20T05:06:09.697Z,2.13
2023-05-20T05:08:38.165Z,2.60
2023-05-20T05:11:09.766Z,2.38
2023-05-20T05:13:37.998Z,2.58
2023-05-20T05:16:06.633Z,2.30
2023-05-20T05:18:34.870Z,2.53
2023-05-20T05:21:05.095Z,2.65
2023-05-20T05:23:34.425Z,2.58
2023-05-20T05:26:02.702Z,2.55
2023-05-20T05:28:31.286Z,2.80
2023-05-20T05:30:59.555Z,2.50
2023-05-20T05:33:27.837Z,2.25
2023-05-20T05:35:57.649Z,2.38
2023-05-20T05:38:26.635Z,2.35
2023-05-20T05:40:54.986Z,2.40
2023-05-20T05:43:23.269Z,2.30
2023-05-20T05:45:51.875Z,2.30
2023-05-20T05:48:20.148Z,2.55
2023-05-20T05:50:48.507Z,2.28
2023-05-20T05:53:17.027Z,2.55
2023-05-20T05:55:47.132Z,2.53
2023-05-20T05:58:15.372Z,2.33
2023-05-20T06:00:43.643Z,2.22
2023-05-20T06:03:12.037Z,2.25
2023-05-20T06:05:40.332Z,2.63
2023-05-20T06:08:08.980Z,2.22
2023-05-20T06:10:37.257Z,2.20
2023-05-20T06:13:05.588Z,2.08
2023-05-20T06:15:34.008Z,2.22
2023-05-20T06:18:02.448Z,2.33
2023-05-20T06:20:30.750Z,2.53
2023-05-20T06:22:59.085Z,2.00
2023-05-20T06:25:27.401Z,1.88
2023-05-20T06:27:55.634Z,2.22
2023-05-20T06:30:23.907Z,2.20
2023-05-20T06:32:52.513Z,1.90
2023-05-20T06:35:21.193Z,2.03
2023-05-20T06:37:49.527Z,1.95
2023-05-20T06:40:18.181Z,1.75
2023-05-20T06:42:46.627Z,1.80
2023-05-20T06:45:14.897Z,2.22
2023-05-20T06:47:43.231Z,2.10
2023-05-20T06:50:12.189Z,2.00
2023-05-20T06:52:40.448Z,2.15
2023-05-20T06:55:09.063Z,2.17
2023-05-20T06:57:37.544Z,2.35
2023-05-20T07:00:06.942Z,2.15
2023-05-20T07:02:35.373Z,2.13
2023-05-20T07:05:03.613Z,1.80
2023-05-20T07:07:31.877Z,1.98
2023-05-20T07:10:00.217Z,2.20
2023-05-20T07:12:28.486Z,2.30
2023-05-20T07:14:56.666Z,2.80
2023-05-20T07:17:25.702Z,2.33
2023-05-20T07:19:53.978Z,2.50
2023-05-20T07:22:22.122Z,2.40
2023-05-20T07:24:50.355Z,1.95
2023-05-20T07:27:18.551Z,2.20
2023-05-20T07:29:46.927Z,2.00
2023-05-20T07:32:15.146Z,2.33
2023-05-20T07:34:43.413Z,2.22
2023-05-20T07:37:13.552Z,2.05
2023-05-20T07:39:41.828Z,2.42
2023-05-20T07:42:10.063Z,1.90
2023-05-20T07:44:38.245Z,2.63
2023-05-20T07:47:06.892Z,2.20
2023-05-20T07:49:35.099Z,2.05
2023-05-20T07:52:03.394Z,2.50
2023-05-20T07:54:31.759Z,2.35
2023-05-20T07:57:01.157Z,2.30
2023-05-20T07:59:29.342Z,2.35
2023-05-20T08:01:58.045Z,2.72
2023-05-20T08:04:27.926Z,2.40
2023-05-20T08:06:56.691Z,2.33
2023-05-20T08:09:24.967Z,1.80
2023-05-20T08:11:53.167Z,2.15
2023-05-20T08:14:21.383Z,2.20
2023-05-20T08:16:51.090Z,2.17
2023-05-20T08:19:21.465Z,2.03
2023-05-20T08:21:50.217Z,1.95
2023-05-20T08:24:18.526Z,2.25
2023-05-20T08:26:46.752Z,2.67
2023-05-20T08:29:14.986Z,2.05
2023-05-20T08:31:43.208Z,2.42
2023-05-20T08:34:11.406Z,1.73
2023-05-20T08:36:40.768Z,2.35
2023-05-20T08:39:08.926Z,2.20
2023-05-20T08:41:38.168Z,2.35
2023-05-20T08:44:07.202Z,2.67
2023-05-20T08:46:36.996Z,2.47
2023-05-20T08:49:05.244Z,2.90
2023-05-20T08:51:34.759Z,2.80
2023-05-20T08:54:03.834Z,2.30
2023-05-20T08:56:34.708Z,2.30
2023-05-20T08:59:02.966Z,2.53
2023-05-20T09:01:31.198Z,2.42
2023-05-20T09:03:59.376Z,2.63
2023-05-20T09:06:27.610Z,2.75
2023-05-20T09:08:55.858Z,2.40
2023-05-20T09:11:24.637Z,2.50
2023-05-20T09:13:52.781Z,2.72
2023-05-20T09:16:21.166Z,2.63
2023-05-20T09:18:49.680Z,2.40
2023-05-20T09:21:17.866Z,2.97
2023-05-20T09:23:50.160Z,2.55
2023-05-20T09:26:19.858Z,2.65
2023-05-20T09:28:48.107Z,2.60
2023-05-20T09:31:16.547Z,2.53
2023-05-20T09:33:45.377Z,2.50
2023-05-20T09:36:16.604Z,2.40
2023-05-20T09:38:48.232Z,2.88
2023-05-20T09:41:16.510Z,2.83
2023-05-20T09:43:45.777Z,2.90
2023-05-20T09:46:15.055Z,3.13
2023-05-20T09:48:44.193Z,2.28
2023-05-20T09:51:14.167Z,2.80
2023-05-20T09:53:43.934Z,2.80
2023-05-20T09:56:12.478Z,2.80
2023-05-20T09:58:43.488Z,2.65
2023-05-20T10:01:11.979Z,2.70
2023-05-20T10:03:42.649Z,2.70
2023-05-20T10:06:35.040Z,2.83
2023-05-20T10:09:32.222Z,2.80
2023-05-20T10:12:42.166Z,3.22
2023-05-20T10:15:51.694Z,3.03
2023-05-20T10:18:28.846Z,2.65
2023-05-20T10:20:57.174Z,3.40
2023-05-20T10:23:28.943Z,2.28
2023-05-20T10:25:58.580Z,2.90
2023-05-20T10:28:37.905Z,2.90
2023-05-20T10:31:21.948Z,2.63
2023-05-20T10:33:53.528Z,2.77
2023-05-20T10:36:29.093Z,2.88
2023-05-20T10:38:59.263Z,2.33
2023-05-20T10:41:29.021Z,2.33
2023-05-20T10:44:06.799Z,2.28
2023-05-20T10:46:53.970Z,2.70
2023-05-20T10:49:27.102Z,2.50
2023-05-20T10:51:56.470Z,2.25
2023-05-20T10:54:24.847Z,2.17
2023-05-20T10:56:54.539Z,2.33
2023-05-20T10:59:23.194Z,2.50
2023-05-20T11:01:52.785Z,2.38
2023-05-20T11:04:21.606Z,2.35
2023-05-20T11:06:56.833Z,2.25
2023-05-20T11:09:25.111Z,2.08
2023-05-20T11:11:56.670Z,2.00
2023-05-20T11:14:24.944Z,2.00
2023-05-20T11:16:55.093Z,1.80
2023-05-20T11:19:23.447Z,1.80
2023-05-20T11:21:52.390Z,1.90
2023-05-20T11:24:30.541Z,1.90
2023-05-20T11:26:58.960Z,1.65
2023-05-20T11:29:29.919Z,2.20
2023-05-20T11:31:58.230Z,2.15
2023-05-20T11:34:27.787Z,2.50
2023-05-20T11:37:00.303Z,2.03
2023-05-20T11:39:31.795Z,2.10
2023-05-20T11:42:00.105Z,1.88
2023-05-20T11:44:28.441Z,1.80
2023-05-20T11:47:02.533Z,1.90
2023-05-20T11:49:31.658Z,1.98
2023-05-20T11:51:59.884Z,1.65
2023-05-20T11:54:28.312Z,1.48
2023-05-20T11:56:57.431Z,1.58
2023-05-20T11:59:26.023Z,1.60
2023-05-20T12:01:54.349Z,1.70
2023-05-20T12:04:22.825Z,1.85
2023-05-20T12:06:51.514Z,1.88
2023-05-20T12:09:19.759Z,1.70
2023-05-20T12:11:48.051Z,1.80
2023-05-20T12:14:16.281Z,1.85
2023-05-20T12:16:44.541Z,1.90
2023-05-20T12:19:12.927Z,2.20
2023-05-20T12:21:41.158Z,2.10
2023-05-20T12:24:09.436Z,1.88
2023-05-20T12:26:37.742Z,2.25
2023-05-20T12:29:06.002Z,2.63
2023-05-20T12:31:35.116Z,2.38
2023-05-20T12:34:03.777Z,2.10
2023-05-20T12:36:32.448Z,2.00
2023-05-20T12:39:00.680Z,1.77
2023-05-20T12:41:28.917Z,1.90
2023-05-20T12:43:57.132Z,1.98
2023-05-20T12:46:25.684Z,2.13
2023-05-20T12:48:54.066Z,2.17
2023-05-20T12:51:22.303Z,2.35
2023-05-20T12:53:50.865Z,2.10
2023-05-20T12:56:20.193Z,1.98
2023-05-20T12:58:48.500Z,1.98
2023-05-20T13:01:16.795Z,2.25
2023-05-20T13:03:45.230Z,1.90
2023-05-20T13:06:13.617Z,1.80
2023-05-20T13:08:41.912Z,2.28
2023-05-20T13:11:10.157Z,2.10
2023-05-20T13:13:38.393Z,1.80
2023-05-20T13:16:07.269Z,1.90
2023-05-20T13:18:35.501Z,1.60
2023-05-20T13:21:03.779Z,1.70
2023-05-20T13:23:32.073Z,1.70
2023-05-20T13:26:00.578Z,1.75
2023-05-20T13:28:28.990Z,1.63
2023-05-20T13:30:57.277Z,2.10
2023-05-20T13:33:25.537Z,1.55
2023-05-20T13:35:53.825Z,1.92
2023-05-20T13:38:22.129Z,1.70
2023-05-20T13:40:50.549Z,1.20
2023-05-20T13:43:18.777Z,1.67
2023-05-20T13:45:47.007Z,1.30
2023-05-20T13:48:15.271Z,1.52
2023-05-20T13:50:43.533Z,1.60
2023-05-20T13:53:14.518Z,1.60
2023-05-20T13:55:42.871Z,1.92
2023-05-20T13:58:11.140Z,1.70
2023-05-20T14:00:39.805Z,1.85
2023-05-20T14:03:09.891Z,1.98
2023-05-20T14:05:38.197Z,1.60
2023-05-20T14:08:06.652Z,2.03
2023-05-20T14:10:35.453Z,1.55
2023-05-20T14:13:03.892Z,1.30
2023-05-20T14:15:32.272Z,1.35
2023-05-20T14:18:00.524Z,1.48
2023-05-20T14:20:28.777Z,1.88
2023-05-20T14:22:57.076Z,1.50
2023-05-20T14:25:25.244Z,1.48
2023-05-20T14:27:53.413Z,1.73
2023-05-20T14:30:21.822Z,1.88
2023-05-20T14:32:50.165Z,1.75
2023-05-20T14:35:19.111Z,1.77
2023-05-20T14:37:47.559Z,1.98
2023-05-20T14:40:16.257Z,1.70
2023-05-20T14:42:44.452Z,1.70
2023-05-20T14:45:12.759Z,1.40
2023-05-20T14:47:41.058Z,1.90
2023-05-20T14:50:09.634Z,1.40
2023-05-20T14:52:37.955Z,1.20
2023-05-20T14:55:06.741Z,1.50
2023-05-20T14:57:35.117Z,1.63
2023-05-20T15:00:03.302Z,1.80
2023-05-20T15:02:31.609Z,1.80
2023-05-20T15:04:59.940Z,2.05
2023-05-20T15:07:28.532Z,1.90
2023-05-20T15:09:56.718Z,2.00
2023-05-20T15:12:24.966Z,2.45
2023-05-20T15:14:53.166Z,2.08
2023-05-20T15:17:21.420Z,2.60
2023-05-20T15:19:49.915Z,2.33
2023-05-20T15:22:18.160Z,2.10
2023-05-20T15:24:46.322Z,2.17
2023-05-20T15:27:16.332Z,2.10
2023-05-20T15:29:44.798Z,2.30
2023-05-20T15:32:12.998Z,2.10
2023-05-20T15:34:41.254Z,2.30
2023-05-20T15:37:09.452Z,2.53
2023-05-20T15:39:40.575Z,2.25
2023-05-20T15:42:08.855Z,2.40
2023-05-20T15:44:37.327Z,2.00
2023-05-20T15:47:06.640Z,2.30
2023-05-20T15:49:34.895Z,1.80
2023-05-20T15:52:04.275Z,2.05
2023-05-20T15:54:33.789Z,2.40
2023-05-20T15:57:03.308Z,2.30
2023-05-20T15:59:31.674Z,2.33
2023-05-20T16:01:59.931Z,2.50
2023-05-20T16:04:28.210Z,2.13
2023-05-20T16:06:56.730Z,2.40
2023-05-20T16:09:24.957Z,2.30
2023-05-20T16:11:53.148Z,2.25
2023-05-20T16:14:21.390Z,2.30
2023-05-20T16:16:50.104Z,2.47
2023-05-20T16:19:18.405Z,2.28
2023-05-20T16:21:46.867Z,2.30
2023-05-20T16:24:15.570Z,2.10
2023-05-20T16:26:43.897Z,2.50
2023-05-20T16:29:13.039Z,2.20
2023-05-20T16:31:42.533Z,2.30
2023-05-20T16:34:10.796Z,2.28
2023-05-20T16:36:39.006Z,2.25
2023-05-20T16:39:07.817Z,2.25
2023-05-20T16:41:35.976Z,2.50
2023-05-20T16:44:04.172Z,2.50
2023-05-20T16:46:32.496Z,2.58
2023-05-20T16:49:00.696Z,2.50
2023-05-20T16:51:28.917Z,2.45
2023-05-20T16:53:57.418Z,2.70
2023-05-20T16:56:25.677Z,2.80
2023-05-20T16:58:54.930Z,2.85
2023-05-20T17:01:23.816Z,2.60
2023-05-20T17:03:52.345Z,2.50
2023-05-20T17:06:20.539Z,2.20
2023-05-20T17:08:48.751Z,2.63
2023-05-20T17:11:17.311Z,2.38
2023-05-20T17:13:45.512Z,2.90
2023-05-20T17:16:13.986Z,2.97
2023-05-20T17:18:42.262Z,3.08
2023-05-20T17:21:10.530Z,3.15
2023-05-20T17:23:38.696Z,2.85
2023-05-20T17:26:07.247Z,3.05
2023-05-20T17:28:35.451Z,2.53
2023-05-20T17:31:03.675Z,2.60
2023-05-20T17:33:32.381Z,2.40
2023-05-20T17:36:00.755Z,2.75
2023-05-20T17:38:28.999Z,2.10
2023-05-20T17:40:57.346Z,2.30
2023-05-20T17:43:26.451Z,2.60
2023-05-20T17:45:54.769Z,2.53
2023-05-20T17:48:22.989Z,2.22
2023-05-20T17:50:51.592Z,2.20
2023-05-20T17:53:22.310Z,2.60
2023-05-20T17:55:50.579Z,2.50
2023-05-20T17:58:18.804Z,2.10
2023-05-20T18:00:46.960Z,2.00
2023-05-20T18:03:15.200Z,2.15
2023-05-20T18:05:43.518Z,1.70
2023-05-20T18:08:12.603Z,1.85
2023-05-20T18:10:41.154Z,1.60
2023-05-20T18:13:09.396Z,1.60
2023-05-20T18:15:37.821Z,2.13
2023-05-20T18:18:06.289Z,2.00
2023-05-20T18:20:34.717Z,1.40
2023-05-20T18:23:03.119Z,1.70
2023-05-20T18:25:31.489Z,1.67
2023-05-20T18:27:59.711Z,1.70
2023-05-20T18:30:28.047Z,1.58
2023-05-20T18:32:57.868Z,1.80
2023-05-20T18:35:26.076Z,1.50
2023-05-20T18:37:54.360Z,1.50
2023-05-20T18:40:22.892Z,2.10
2023-05-20T18:42:51.535Z,1.83
2023-05-20T18:45:19.737Z,1.70
2023-05-20T18:47:48.063Z,1.60
2023-05-20T18:50:16.338Z,1.60
2023-05-20T18:52:44.644Z,1.60
2023-05-20T18:55:12.892Z,1.52
2023-05-20T18:57:41.205Z,1.65
2023-05-20T19:00:13.478Z,1.70
2023-05-20T19:02:42.530Z,1.90
2023-05-20T19:05:12.198Z,1.90
2023-05-20T19:07:40.621Z,1.95
2023-05-20T19:10:09.757Z,1.60
2023-05-20T19:12:38.047Z,1.90
2023-05-20T19:15:06.811Z,1.85
2023-05-20T19:17:35.131Z,1.52
2023-05-20T19:20:03.581Z,1.77
2023-05-20T19:22:31.820Z,1.40
2023-05-20T19:25:00.054Z,1.83
2023-05-20T19:27:28.417Z,1.52
2023-05-20T19:29:56.898Z,1.83
2023-05-20T19:32:25.155Z,1.73
2023-05-20T19:34:53.487Z,1.60
2023-05-20T19:37:23.161Z,1.40
2023-05-20T19:39:51.946Z,1.58
2023-05-20T19:42:20.272Z,1.20
2023-05-20T19:44:48.623Z,1.50
2023-05-20T19:47:17.217Z,1.30
2023-05-20T19:49:45.458Z,1.50
2023-05-20T19:52:13.707Z,1.20
2023-05-20T19:54:43.481Z,1.15
2023-05-20T19:57:12.174Z,1.30
2023-05-20T19:59:40.897Z,1.10
2023-05-20T20:02:09.271Z,1.33
2023-05-20T20:04:38.756Z,1.30
2023-05-20T20:07:08.429Z,1.13
2023-05-20T20:09:37.330Z,1.38
2023-05-20T20:12:07.734Z,1.30
2023-05-20T20:14:35.977Z,1.25
2023-05-20T20:17:04.242Z,1.08
2023-05-20T20:19:32.636Z,1.10
2023-05-20T20:22:00.949Z,1.00
2023-05-20T20:24:29.200Z,1.00
2023-05-20T20:26:57.655Z,1.20
2023-05-20T20:29:26.091Z,0.90
2023-05-20T20:31:55.184Z,1.20
2023-05-20T20:34:23.583Z,1.10
2023-05-20T20:36:54.009Z,0.77
2023-05-20T20:39:23.650Z,0.95
2023-05-20T20:41:53.004Z,1.08
2023-05-20T20:44:24.263Z,1.17
2023-05-20T20:46:53.600Z,1.10
2023-05-20T20:49:23.499Z,1.15
2023-05-20T20:51:54.008Z,1.20
2023-05-20T20:54:22.250Z,1.40
2023-05-20T20:56:51.151Z,1.30
2023-05-20T20:59:19.493Z,1.00
2023-05-20T21:01:47.760Z,1.00
2023-05-20T21:04:18.154Z,0.90
2023-05-20T21:06:50.072Z,1.00
2023-05-20T21:09:18.988Z,1.00
2023-05-20T21:11:50.204Z,0.93
2023-05-20T21:14:18.428Z,1.10
2023-05-20T21:16:46.783Z,1.08
2023-05-20T21:19:15.210Z,1.08
2023-05-20T21:21:43.513Z,0.90
2023-05-20T21:24:11.803Z,1.00
2023-05-20T21:26:40.052Z,1.10
2023-05-20T21:29:10.773Z,1.10
2023-05-20T21:31:39.677Z,0.90
2023-05-20T21:34:08.009Z,1.00
2023-05-20T21:36:37.097Z,0.95
2023-05-20T21:39:05.520Z,1.08
2023-05-20T21:41:34.062Z,1.00
2023-05-20T21:44:02.265Z,0.80
2023-05-20T21:46:30.551Z,0.80
2023-05-20T21:48:58.910Z,1.00
2023-05-20T21:51:27.170Z,0.70
2023-05-20T21:53:55.459Z,1.33
2023-05-20T21:56:24.078Z,1.20
2023-05-20T21:58:52.500Z,1.00
2023-05-20T22:01:20.797Z,1.00
2023-05-20T22:03:51.203Z,1.00
2023-05-20T22:06:22.311Z,1.20
2023-05-20T22:08:51.805Z,1.10
2023-05-20T22:11:20.774Z,1.33
2023-05-20T22:13:49.012Z,1.23
2023-05-20T22:16:17.642Z,1.23
2023-05-20T22:18:48.538Z,1.17
2023-05-20T22:21:16.833Z,1.00
2023-05-20T22:23:45.076Z,0.90
2023-05-20T22:26:13.367Z,0.93
2023-05-20T22:28:41.627Z,1.10
2023-05-20T22:31:10.054Z,1.10
2023-05-20T22:33:38.333Z,1.00
2023-05-20T22:36:07.132Z,1.00
2023-05-20T22:38:36.726Z,0.90
2023-05-20T22:41:05.485Z,0.82
2023-05-20T22:43:33.692Z,0.98
2023-05-20T22:46:02.011Z,1.02
2023-05-20T22:48:30.631Z,1.10
2023-05-20T22:50:59.208Z,1.20
2023-05-20T22:53:27.859Z,1.00
2023-05-20T22:55:56.664Z,1.00
2023-05-20T22:58:24.918Z,0.88
2023-05-20T23:00:53.583Z,0.90
2023-05-20T23:03:21.928Z,1.00
2023-05-20T23:05:50.294Z,0.85
2023-05-20T23:08:20.052Z,0.90
2023-05-20T23:10:48.386Z,0.90
2023-05-20T23:13:16.829Z,0.93
2023-05-20T23:15:49.424Z,0.70
2023-05-20T23:18:18.171Z,1.00
2023-05-20T23:20:46.460Z,1.00
2023-05-20T23:23:14.760Z,1.00
2023-05-20T23:25:45.040Z,0.88
2023-05-20T23:28:14.061Z,1.13
2023-05-20T23:30:42.276Z,0.98
2023-05-20T23:33:10.622Z,0.80
2023-05-20T23:35:39.411Z,0.90
2023-05-20T23:38:08.499Z,0.90
2023-05-20T23:40:37.019Z,1.00
2023-05-20T23:43:05.279Z,1.05
2023-05-20T23:45:33.729Z,1.13
2023-05-20T23:48:05.194Z,1.27
2023-05-20T23:50:33.562Z,0.93
2023-05-20T23:53:01.783Z,1.33
2023-05-20T23:55:30.017Z,1.20
2023-05-20T23:57:58.300Z,1.33
